createdAt,value
2018-11-07T00:00:01.261Z,48.1
2018-11-07T00:05:01.234Z,48.4
2018-11-07T00:10:01.245Z,48.4
2018-11-07T00:15:06.265Z,47.9
2018-11-07T00:25:06.254Z,47.0
2018-11-07T00:30:01.481Z,47.4
2018-11-07T00:35:01.638Z,47.4
2018-11-07T00:40:01.286Z,48.7
2018-11-07T00:45:01.252Z,49.3
2018-11-07T00:50:01.320Z,49.2
2018-11-07T00:55:01.253Z,49.5
2018-11-07T01:00:01.258Z,50.0
2018-11-07T01:05:01.257Z,50.0
2018-11-07T01:10:01.251Z,50.2
2018-11-07T01:15:01.259Z,51.9
2018-11-07T01:20:01.274Z,52.2
2018-11-07T01:25:01.587Z,52.8
2018-11-07T01:30:01.274Z,52.6
2018-11-07T01:35:01.323Z,53.6
2018-11-07T01:40:01.263Z,53.5
2018-11-07T01:45:01.249Z,53.2
2018-11-07T01:50:06.324Z,52.8
2018-11-07T01:55:07.354Z,51.8
2018-11-07T02:00:01.304Z,50.2
2018-11-07T02:05:01.300Z,49.0
2018-11-07T02:10:01.424Z,48.3
2018-11-07T02:15:06.276Z,47.6
2018-11-07T02:20:01.291Z,47.6
2018-11-07T02:25:01.286Z,48.3
2018-11-07T02:30:06.254Z,49.1
2018-11-07T02:35:01.293Z,49.5
2018-11-07T02:40:01.282Z,50.2
2018-11-07T02:45:01.254Z,50.8
2018-11-07T02:50:01.328Z,50.6
2018-11-07T02:55:01.255Z,50.3
2018-11-07T03:00:01.321Z,50.5
2018-11-07T03:11:01.366Z,51.1
2018-11-07T03:16:06.249Z,51.6
2018-11-07T03:21:06.240Z,52.1
2018-11-07T03:26:06.241Z,51.8
2018-11-07T03:31:06.316Z,51.8
2018-11-07T03:36:01.280Z,52.8
2018-11-07T03:41:01.406Z,53.0
2018-11-07T03:46:01.277Z,52.8
2018-11-07T03:51:01.350Z,53.4
2018-11-07T03:56:01.277Z,52.8
2018-11-07T04:01:06.255Z,52.0
2018-11-07T04:06:01.283Z,52.2
2018-11-07T04:11:06.252Z,53.1
2018-11-07T04:16:01.251Z,53.2
2018-11-07T04:21:01.383Z,54.2
2018-11-07T04:31:01.322Z,53.0
2018-11-07T04:36:01.261Z,52.4
2018-11-07T04:41:01.422Z,52.5
2018-11-07T04:46:06.263Z,51.6
2018-11-07T04:51:06.256Z,51.9
2018-11-07T04:56:06.323Z,52.4
2018-11-07T05:01:01.373Z,52.8
2018-11-07T05:11:02.375Z,53.5
2018-11-07T05:16:01.247Z,54.3
2018-11-07T05:26:01.449Z,53.8
2018-11-07T05:31:06.393Z,54.2
2018-11-07T05:36:02.462Z,54.7
2018-11-07T05:41:01.512Z,54.9
2018-11-07T05:46:01.287Z,55.3
2018-11-07T05:51:06.323Z,55.8
2018-11-07T05:56:01.286Z,55.7
2018-11-07T06:01:01.443Z,55.4
2018-11-07T06:06:01.249Z,56.8
2018-11-07T06:11:01.254Z,57.0
2018-11-07T06:16:01.357Z,56.2
2018-11-07T06:21:01.376Z,55.8
2018-11-07T06:26:01.251Z,55.0
2018-11-07T06:31:01.308Z,52.8
2018-11-07T06:36:01.254Z,52.0
2018-11-07T06:41:01.372Z,51.6
2018-11-07T06:46:01.252Z,51.8
2018-11-07T06:56:01.250Z,53.2
2018-11-07T07:01:01.314Z,54.1
2018-11-07T07:06:01.249Z,54.9
2018-11-07T07:11:01.309Z,54.6
2018-11-07T07:16:01.251Z,54.1
2018-11-07T07:21:01.315Z,54.2
2018-11-07T07:26:01.257Z,53.4
2018-11-07T07:31:01.314Z,53.6
2018-11-07T07:36:01.252Z,53.4
2018-11-07T07:41:01.385Z,53.2
2018-11-07T07:51:01.459Z,52.7
2018-11-07T07:56:01.243Z,52.0
2018-11-07T08:01:01.300Z,53.0
2018-11-07T08:06:01.243Z,53.8
2018-11-07T08:11:01.247Z,54.5
2018-11-07T08:16:01.246Z,55.6
2018-11-07T08:21:01.289Z,56.4
2018-11-07T08:26:06.259Z,56.0
2018-11-07T08:31:01.614Z,55.7
2018-11-07T08:41:01.311Z,55.8
2018-11-07T08:46:01.298Z,55.5
2018-11-07T08:51:01.379Z,55.8
2018-11-07T08:56:01.255Z,56.3
2018-11-07T09:01:01.249Z,56.0
2018-11-07T09:06:01.245Z,56.0
2018-11-07T09:11:01.320Z,56.7
2018-11-07T09:16:01.241Z,56.6
2018-11-07T09:21:01.307Z,56.0
2018-11-07T09:26:01.245Z,56.1
2018-11-07T09:31:01.373Z,57.7
2018-11-07T09:36:01.245Z,57.5
2018-11-07T09:41:01.310Z,57.0
2018-11-07T09:46:01.247Z,56.9
2018-11-07T09:51:01.306Z,56.9
2018-11-07T09:56:01.253Z,54.8
2018-11-07T10:01:01.413Z,54.3
2018-11-07T10:06:01.253Z,54.2
2018-11-07T10:11:01.382Z,54.0
2018-11-07T10:16:01.249Z,53.2
2018-11-07T10:21:01.320Z,53.2
2018-11-07T10:36:01.325Z,52.9
2018-11-07T10:41:06.266Z,53.6
2018-11-07T10:47:01.250Z,53.3
2018-11-07T10:52:01.303Z,53.5
2018-11-07T10:57:06.268Z,52.7
2018-11-07T11:02:01.280Z,52.7
2018-11-07T11:07:01.244Z,52.5
2018-11-07T11:12:06.316Z,52.9
2018-11-07T11:17:01.649Z,52.8
2018-11-07T11:22:01.325Z,53.4
2018-11-07T11:27:01.297Z,53.2
2018-11-07T11:32:01.360Z,53.2
2018-11-07T11:37:02.879Z,52.5
2018-11-07T11:42:01.249Z,52.2
2018-11-07T11:52:06.456Z,51.4
2018-11-07T11:57:06.267Z,50.0
2018-11-07T12:02:01.395Z,48.9
2018-11-07T12:07:06.249Z,48.0
2018-11-07T12:12:02.115Z,48.0
2018-11-07T12:17:01.290Z,47.9
2018-11-07T12:22:01.290Z,47.9
2018-11-07T12:27:01.506Z,48.4
2018-11-07T12:32:01.293Z,48.9
2018-11-07T12:37:01.327Z,48.6
2018-11-07T12:42:02.278Z,48.5
2018-11-07T12:47:01.256Z,49.1
2018-11-07T12:52:01.314Z,49.8
2018-11-07T12:57:01.341Z,49.5
2018-11-07T13:02:01.259Z,49.1
2018-11-07T13:07:01.243Z,49.1
2018-11-07T13:12:01.246Z,48.6
2018-11-07T13:17:01.239Z,47.8
2018-11-07T13:22:01.311Z,48.0
2018-11-07T13:27:01.252Z,48.0
2018-11-07T13:32:01.424Z,47.0
2018-11-07T13:37:01.650Z,46.4
2018-11-07T13:42:02.384Z,45.8
2018-11-07T13:47:01.252Z,45.4
2018-11-07T13:52:01.252Z,44.7
2018-11-07T13:57:01.245Z,44.5
2018-11-07T14:02:01.321Z,44.1
2018-11-07T14:07:01.257Z,43.8
2018-11-07T14:12:01.387Z,43.4
2018-11-07T14:17:01.260Z,43.0
2018-11-07T14:23:01.249Z,42.9
2018-11-07T14:28:02.009Z,42.1
2018-11-07T14:33:01.455Z,42.3
2018-11-07T14:38:01.286Z,41.3
2018-11-07T14:48:01.329Z,41.5
2018-11-07T14:53:01.445Z,42.3
2018-11-07T14:58:01.254Z,42.4
2018-11-07T15:03:01.319Z,42.6
2018-11-07T15:08:01.366Z,42.8
2018-11-07T15:13:01.321Z,42.9
2018-11-07T15:18:01.245Z,43.0
2018-11-07T15:23:01.319Z,43.2
2018-11-07T15:28:01.246Z,45.7
2018-11-07T15:33:01.253Z,46.3
2018-11-07T15:38:01.257Z,47.0
2018-11-07T15:43:01.323Z,47.6
2018-11-07T15:48:01.319Z,47.2
2018-11-07T15:53:01.319Z,46.2
2018-11-07T15:58:01.256Z,46.4
2018-11-07T16:03:01.381Z,46.6
2018-11-07T16:08:01.317Z,47.2
2018-11-07T16:13:01.477Z,48.2
2018-11-07T16:18:01.268Z,48.5
2018-11-07T16:23:01.403Z,48.4
2018-11-07T16:28:01.257Z,48.9
2018-11-07T16:33:01.308Z,48.0
2018-11-07T16:38:01.400Z,48.3
2018-11-07T16:43:01.377Z,48.2
2018-11-07T16:48:02.677Z,48.8
2018-11-07T16:53:06.263Z,48.5
2018-11-07T16:58:06.269Z,49.3
2018-11-07T17:03:06.318Z,48.4
2018-11-07T17:08:06.259Z,48.9
2018-11-07T17:13:06.276Z,47.9
2018-11-07T17:18:01.287Z,47.6
2018-11-07T17:23:01.342Z,47.0
2018-11-07T17:28:06.266Z,46.5
2018-11-07T17:33:06.264Z,46.0
2018-11-07T17:38:06.323Z,45.8
2018-11-07T17:43:06.312Z,45.5
2018-11-07T17:48:06.604Z,45.6
2018-11-07T17:53:06.308Z,46.4
2018-11-07T17:58:01.453Z,46.2
2018-11-07T18:03:01.346Z,45.2
2018-11-07T18:08:01.277Z,44.8
2018-11-07T18:13:01.415Z,45.0
2018-11-07T18:18:01.286Z,44.1
2018-11-07T18:23:06.387Z,43.4
2018-11-07T18:28:06.250Z,44.4
2018-11-07T18:33:06.388Z,44.8
2018-11-07T18:38:01.291Z,43.7
2018-11-07T18:43:06.738Z,42.8
2018-11-07T18:48:06.260Z,41.7
2018-11-07T18:53:06.391Z,40.4
2018-11-07T18:59:01.474Z,39.1
2018-11-07T19:04:06.378Z,38.8
2018-11-07T19:09:01.309Z,38.8
2018-11-07T19:14:02.024Z,38.8
2018-11-07T19:19:01.290Z,37.2
2018-11-07T19:24:01.642Z,35.7
2018-11-07T19:29:01.297Z,33.8
2018-11-07T19:34:01.365Z,31.7
2018-11-07T19:39:06.268Z,31.1
2018-11-07T19:44:01.364Z,32.6
2018-11-07T19:49:01.297Z,34.4
2018-11-07T19:54:01.698Z,34.9
2018-11-07T19:59:06.246Z,36.4
2018-11-07T20:04:06.377Z,36.7
2018-11-07T20:09:01.326Z,36.0
2018-11-07T20:14:06.313Z,34.0
2018-11-07T20:19:01.233Z,32.8
2018-11-07T20:24:01.351Z,32.9
2018-11-07T20:29:06.460Z,31.8
2018-11-07T20:34:01.284Z,30.8
2018-11-07T20:39:01.296Z,29.3
2018-11-07T20:44:01.406Z,29.3
2018-11-07T20:49:01.528Z,29.0
2018-11-07T20:54:06.388Z,29.0
2018-11-07T20:59:06.263Z,31.3
2018-11-07T21:04:01.285Z,32.4
2018-11-07T21:09:01.281Z,31.2
2018-11-07T21:14:01.273Z,28.9
2018-11-07T21:19:02.252Z,28.3
2018-11-07T21:24:01.319Z,25.4
2018-11-07T21:29:01.265Z,25.4
2018-11-07T21:34:01.318Z,26.8
2018-11-07T21:39:01.255Z,27.2
2018-11-07T21:44:01.579Z,27.2
2018-11-07T21:54:01.246Z,26.3
2018-11-07T21:59:01.247Z,26.1
2018-11-07T22:04:06.386Z,26.8
2018-11-07T22:09:01.246Z,27.6
2018-11-07T22:14:01.275Z,29.3
2018-11-07T22:19:01.255Z,31.2
2018-11-07T22:24:01.646Z,32.9
2018-11-07T22:29:01.250Z,34.3
2018-11-07T22:34:01.281Z,32.4
2018-11-07T22:39:01.251Z,31.9
2018-11-07T22:44:01.319Z,30.1
2018-11-07T22:49:01.252Z,29.4
2018-11-07T22:54:06.321Z,27.1
2018-11-07T22:59:06.259Z,27.5
2018-11-07T23:04:01.259Z,28.0
2018-11-07T23:09:01.257Z,28.9
2018-11-07T23:14:02.889Z,28.2
2018-11-07T23:19:01.265Z,28.0
2018-11-07T23:24:01.249Z,29.0
2018-11-07T23:29:01.267Z,29.2
2018-11-07T23:34:01.380Z,29.6
2018-11-07T23:39:01.291Z,30.2
2018-11-07T23:49:01.312Z,31.3
2018-11-07T23:59:06.325Z,30.9
